sensor_id;sensor_type;location;lat;lon;timestamp;pressure;altitude;pressure_sealevel;temperature;humidity
71107;BME280;58763;47.982;11.516;2023-02-28T00:01:13;94501.38;;;-4.15;80.36
71107;BME280;58763;47.982;11.516;2023-02-28T00:03:41;94497.38;;;-4.32;80.50
71107;BME280;58763;47.982;11.516;2023-02-28T00:06:07;94490.25;;;-4.53;81.12
71107;BME280;58763;47.982;11.516;2023-02-28T00:08:35;94488.88;;;-4.49;80.48
71107;BME280;58763;47.982;11.516;2023-02-28T00:11:06;94487.69;;;-4.46;80.44
71107;BME280;58763;47.982;11.516;2023-02-28T00:13:35;94483.28;;;-4.39;80.17
71107;BME280;58763;47.982;11.516;2023-02-28T00:16:06;94491.03;;;-4.52;79.86
71107;BME280;58763;47.982;11.516;2023-02-28T00:18:32;94481.44;;;-4.60;80.33
71107;BME280;58763;47.982;11.516;2023-02-28T00:20:58;94484.03;;;-4.81;80.53
71107;BME280;58763;47.982;11.516;2023-02-28T00:23:25;94483.31;;;-4.90;80.62
71107;BME280;58763;47.982;11.516;2023-02-28T00:25:51;94481.06;;;-4.93;80.77
71107;BME280;58763;47.982;11.516;2023-02-28T00:28:17;94481.97;;;-5.00;81.33
71107;BME280;58763;47.982;11.516;2023-02-28T00:30:44;94465.59;;;-4.96;80.87
71107;BME280;58763;47.982;11.516;2023-02-28T00:33:10;94469.84;;;-4.95;81.17
71107;BME280;58763;47.982;11.516;2023-02-28T00:35:35;94470.66;;;-4.79;81.16
71107;BME280;58763;47.982;11.516;2023-02-28T00:38:01;94469.75;;;-4.86;80.63
71107;BME280;58763;47.982;11.516;2023-02-28T00:40:28;94479.34;;;-5.00;81.41
71107;BME280;58763;47.982;11.516;2023-02-28T00:42:53;94484.75;;;-4.87;81.14
71107;BME280;58763;47.982;11.516;2023-02-28T00:45:19;94475.56;;;-4.76;80.26
71107;BME280;58763;47.982;11.516;2023-02-28T00:47:45;94476.91;;;-4.66;79.71
71107;BME280;58763;47.982;11.516;2023-02-28T00:50:12;94476.63;;;-4.71;79.68
71107;BME280;58763;47.982;11.516;2023-02-28T00:52:37;94481.47;;;-4.74;78.92
71107;BME280;58763;47.982;11.516;2023-02-28T00:55:04;94474.50;;;-4.97;79.61
71107;BME280;58763;47.982;11.516;2023-02-28T00:57:30;94468.94;;;-5.02;79.86
71107;BME280;58763;47.982;11.516;2023-02-28T00:59:55;94474.78;;;-4.92;79.53
71107;BME280;58763;47.982;11.516;2023-02-28T01:02:22;94468.38;;;-5.18;80.19
71107;BME280;58763;47.982;11.516;2023-02-28T01:04:48;94461.53;;;-5.13;80.28
71107;BME280;58763;47.982;11.516;2023-02-28T01:07:13;94465.97;;;-5.13;80.21
71107;BME280;58763;47.982;11.516;2023-02-28T01:09:40;94458.88;;;-5.13;80.88
71107;BME280;58763;47.982;11.516;2023-02-28T01:12:08;94464.53;;;-5.16;80.53
71107;BME280;58763;47.982;11.516;2023-02-28T01:14:34;94465.25;;;-5.22;80.95
71107;BME280;58763;47.982;11.516;2023-02-28T01:17:01;94462.69;;;-5.01;80.57
71107;BME280;58763;47.982;11.516;2023-02-28T01:19:26;94467.78;;;-4.99;79.59
71107;BME280;58763;47.982;11.516;2023-02-28T01:21:52;94466.16;;;-5.00;79.59
71107;BME280;58763;47.982;11.516;2023-02-28T01:24:17;94461.22;;;-4.88;78.94
71107;BME280;58763;47.982;11.516;2023-02-28T01:26:43;94457.72;;;-5.10;79.17
71107;BME280;58763;47.982;11.516;2023-02-28T01:29:09;94451.19;;;-5.14;79.99
71107;BME280;58763;47.982;11.516;2023-02-28T01:31:34;94455.81;;;-5.31;80.11
71107;BME280;58763;47.982;11.516;2023-02-28T01:34:00;94459.28;;;-5.30;79.89
71107;BME280;58763;47.982;11.516;2023-02-28T01:36:26;94450.81;;;-5.26;80.20
71107;BME280;58763;47.982;11.516;2023-02-28T01:38:52;94450.34;;;-5.29;79.99
71107;BME280;58763;47.982;11.516;2023-02-28T01:41:29;94446.09;;;-5.45;80.35
71107;BME280;58763;47.982;11.516;2023-02-28T01:44:05;94451.28;;;-5.51;80.17
71107;BME280;58763;47.982;11.516;2023-02-28T01:46:33;94443.75;;;-5.54;80.49
71107;BME280;58763;47.982;11.516;2023-02-28T01:49:12;94446.56;;;-5.41;79.92
71107;BME280;58763;47.982;11.516;2023-02-28T01:51:49;94447.75;;;-5.44;79.37
71107;BME280;58763;47.982;11.516;2023-02-28T01:54:20;94437.00;;;-5.28;79.35
71107;BME280;58763;47.982;11.516;2023-02-28T01:56:53;94440.00;;;-5.31;79.07
71107;BME280;58763;47.982;11.516;2023-02-28T02:01:57;94432.94;;;-5.30;78.68
71107;BME280;58763;47.982;11.516;2023-02-28T02:04:26;94441.28;;;-5.27;78.81
71107;BME280;58763;47.982;11.516;2023-02-28T02:06:53;94434.38;;;-5.28;78.95
71107;BME280;58763;47.982;11.516;2023-02-28T02:09:19;94435.38;;;-5.29;79.19
71107;BME280;58763;47.982;11.516;2023-02-28T02:11:45;94432.72;;;-5.14;79.00
71107;BME280;58763;47.982;11.516;2023-02-28T02:28:06;94430.84;;;-5.49;80.09
71107;BME280;58763;47.982;11.516;2023-02-28T02:31:06;94429.75;;;-5.55;80.89
71107;BME280;58763;47.982;11.516;2023-02-28T02:33:45;94418.75;;;-5.44;80.83
71107;BME280;58763;47.982;11.516;2023-02-28T02:36:24;94422.94;;;-5.35;80.04
71107;BME280;58763;47.982;11.516;2023-02-28T02:41:48;94425.09;;;-5.53;81.05
71107;BME280;58763;47.982;11.516;2023-02-28T02:47:20;94420.56;;;-5.30;79.89
71107;BME280;58763;47.982;11.516;2023-02-28T02:49:56;94421.91;;;-5.34;80.40
71107;BME280;58763;47.982;11.516;2023-02-28T02:52:29;94417.94;;;-5.30;79.91
71107;BME280;58763;47.982;11.516;2023-02-28T02:54:59;94422.66;;;-5.40;79.80
71107;BME280;58763;47.982;11.516;2023-02-28T02:57:30;94414.22;;;-5.35;80.27
71107;BME280;58763;47.982;11.516;2023-02-28T02:59:59;94417.75;;;-5.57;80.63
71107;BME280;58763;47.982;11.516;2023-02-28T03:02:28;94411.22;;;-5.47;80.47
71107;BME280;58763;47.982;11.516;2023-02-28T03:05:02;94418.56;;;-5.42;80.35
71107;BME280;58763;47.982;11.516;2023-02-28T03:07:30;94411.09;;;-5.39;80.30
71107;BME280;58763;47.982;11.516;2023-02-28T03:09:57;94418.03;;;-5.52;80.65
71107;BME280;58763;47.982;11.516;2023-02-28T03:12:28;94416.03;;;-5.65;80.51
71107;BME280;58763;47.982;11.516;2023-02-28T03:23:03;94417.03;;;-5.37;80.76
71107;BME280;58763;47.982;11.516;2023-02-28T03:26:16;94416.91;;;-5.29;80.04
71107;BME280;58763;47.982;11.516;2023-02-28T03:28:47;94411.66;;;-5.29;80.35
71107;BME280;58763;47.982;11.516;2023-02-28T03:31:30;94415.31;;;-5.09;79.14
71107;BME280;58763;47.982;11.516;2023-02-28T03:36:41;94416.63;;;-5.19;78.48
71107;BME280;58763;47.982;11.516;2023-02-28T03:39:15;94413.66;;;-5.31;78.91
71107;BME280;58763;47.982;11.516;2023-02-28T03:41:48;94416.84;;;-5.21;78.74
71107;BME280;58763;47.982;11.516;2023-02-28T03:44:34;94415.53;;;-5.10;77.73
71107;BME280;58763;47.982;11.516;2023-02-28T03:47:06;94418.34;;;-5.12;77.74
71107;BME280;58763;47.982;11.516;2023-02-28T03:49:40;94420.97;;;-4.97;77.71
71107;BME280;58763;47.982;11.516;2023-02-28T03:52:08;94425.84;;;-4.94;77.47
71107;BME280;58763;47.982;11.516;2023-02-28T03:54:43;94423.06;;;-4.93;77.75
71107;BME280;58763;47.982;11.516;2023-02-28T04:02:37;94434.97;;;-4.75;76.68
71107;BME280;58763;47.982;11.516;2023-02-28T04:05:03;94438.66;;;-4.76;77.13
71107;BME280;58763;47.982;11.516;2023-02-28T04:07:31;94443.75;;;-4.90;76.95
71107;BME280;58763;47.982;11.516;2023-02-28T04:09:57;94454.94;;;-4.88;76.51
71107;BME280;58763;47.982;11.516;2023-02-28T04:12:23;94455.19;;;-4.82;76.87
71107;BME280;58763;47.982;11.516;2023-02-28T04:14:49;94457.66;;;-4.81;76.51
71107;BME280;58763;47.982;11.516;2023-02-28T04:17:15;94456.66;;;-4.80;76.49
71107;BME280;58763;47.982;11.516;2023-02-28T04:19:41;94455.09;;;-4.74;76.22
71107;BME280;58763;47.982;11.516;2023-02-28T04:22:09;94459.44;;;-4.67;76.04
71107;BME280;58763;47.982;11.516;2023-02-28T04:24:35;94456.69;;;-4.59;75.21
71107;BME280;58763;47.982;11.516;2023-02-28T04:27:00;94459.94;;;-4.57;74.98
71107;BME280;58763;47.982;11.516;2023-02-28T04:29:28;94462.16;;;-4.60;75.14
71107;BME280;58763;47.982;11.516;2023-02-28T04:31:55;94460.69;;;-4.63;74.80
71107;BME280;58763;47.982;11.516;2023-02-28T04:34:25;94451.41;;;-4.59;75.23
71107;BME280;58763;47.982;11.516;2023-02-28T04:36:51;94458.75;;;-4.90;75.71
71107;BME280;58763;47.982;11.516;2023-02-28T04:39:23;94457.75;;;-4.89;76.18
71107;BME280;58763;47.982;11.516;2023-02-28T04:41:48;94462.41;;;-4.91;77.10
71107;BME280;58763;47.982;11.516;2023-02-28T04:44:14;94462.06;;;-5.03;77.66
71107;BME280;58763;47.982;11.516;2023-02-28T04:46:40;94458.25;;;-5.15;78.61
71107;BME280;58763;47.982;11.516;2023-02-28T04:49:06;94460.53;;;-5.12;79.12
71107;BME280;58763;47.982;11.516;2023-02-28T04:51:31;94469.28;;;-5.26;79.76
71107;BME280;58763;47.982;11.516;2023-02-28T04:53:57;94471.72;;;-5.24;80.07
71107;BME280;58763;47.982;11.516;2023-02-28T04:56:22;94469.19;;;-5.32;80.85
71107;BME280;58763;47.982;11.516;2023-02-28T04:58:49;94470.16;;;-5.48;81.80
71107;BME280;58763;47.982;11.516;2023-02-28T05:03:44;94470.91;;;-5.39;82.27
71107;BME280;58763;47.982;11.516;2023-02-28T05:06:11;94468.28;;;-5.39;82.13
71107;BME280;58763;47.982;11.516;2023-02-28T05:08:38;94475.81;;;-5.51;82.81
71107;BME280;58763;47.982;11.516;2023-02-28T05:11:07;94472.00;;;-5.48;82.69
71107;BME280;58763;47.982;11.516;2023-02-28T05:13:34;94482.19;;;-5.31;82.53
71107;BME280;58763;47.982;11.516;2023-02-28T05:16:00;94478.72;;;-5.31;82.17
71107;BME280;58763;47.982;11.516;2023-02-28T05:18:26;94488.91;;;-5.14;82.44
71107;BME280;58763;47.982;11.516;2023-02-28T05:20:52;94486.34;;;-5.07;81.82
71107;BME280;58763;47.982;11.516;2023-02-28T05:23:18;94486.97;;;-5.20;82.46
71107;BME280;58763;47.982;11.516;2023-02-28T05:25:45;94486.63;;;-5.17;82.31
71107;BME280;58763;47.982;11.516;2023-02-28T05:28:11;94490.72;;;-5.14;82.68
71107;BME280;58763;47.982;11.516;2023-02-28T05:30:36;94488.06;;;-5.00;82.55
71107;BME280;58763;47.982;11.516;2023-02-28T05:33:02;94490.31;;;-4.97;81.79
71107;BME280;58763;47.982;11.516;2023-02-28T05:35:27;94491.91;;;-5.17;82.85
71107;BME280;58763;47.982;11.516;2023-02-28T05:37:53;94487.06;;;-4.99;82.83
71107;BME280;58763;47.982;11.516;2023-02-28T05:40:19;94489.63;;;-5.05;82.61
71107;BME280;58763;47.982;11.516;2023-02-28T05:42:47;94476.44;;;-5.05;82.64
71107;BME280;58763;47.982;11.516;2023-02-28T05:45:13;94482.13;;;-5.02;82.68
71107;BME280;58763;47.982;11.516;2023-02-28T05:47:38;94496.19;;;-5.16;83.10
71107;BME280;58763;47.982;11.516;2023-02-28T05:50:05;94491.44;;;-5.06;83.07
71107;BME280;58763;47.982;11.516;2023-02-28T05:52:31;94484.78;;;-5.02;82.80
71107;BME280;58763;47.982;11.516;2023-02-28T05:54:56;94492.25;;;-4.91;82.66
71107;BME280;58763;47.982;11.516;2023-02-28T05:57:22;94498.91;;;-5.09;83.39
71107;BME280;58763;47.982;11.516;2023-02-28T05:59:48;94496.22;;;-4.95;83.40
71107;BME280;58763;47.982;11.516;2023-02-28T06:02:15;94507.94;;;-4.82;83.20
71107;BME280;58763;47.982;11.516;2023-02-28T06:04:42;94514.31;;;-4.92;83.01
71107;BME280;58763;47.982;11.516;2023-02-28T06:07:08;94509.53;;;-4.88;83.47
71107;BME280;58763;47.982;11.516;2023-02-28T06:09:33;94515.75;;;-4.74;82.73
71107;BME280;58763;47.982;11.516;2023-02-28T06:12:00;94503.47;;;-4.67;82.63
71107;BME280;58763;47.982;11.516;2023-02-28T06:14:28;94513.19;;;-4.68;82.74
71107;BME280;58763;47.982;11.516;2023-02-28T06:16:53;94509.09;;;-4.70;83.20
71107;BME280;58763;47.982;11.516;2023-02-28T06:19:19;94511.38;;;-4.53;82.44
71107;BME280;58763;47.982;11.516;2023-02-28T06:21:49;94505.47;;;-4.69;82.56
71107;BME280;58763;47.982;11.516;2023-02-28T06:24:14;94518.28;;;-4.66;83.03
71107;BME280;58763;47.982;11.516;2023-02-28T06:26:40;94518.00;;;-4.57;82.89
71107;BME280;58763;47.982;11.516;2023-02-28T06:29:06;94520.69;;;-4.50;82.52
71107;BME280;58763;47.982;11.516;2023-02-28T06:31:31;94512.78;;;-4.50;82.70
71107;BME280;58763;47.982;11.516;2023-02-28T06:33:57;94521.03;;;-4.60;82.91
71107;BME280;58763;47.982;11.516;2023-02-28T06:36:22;94522.09;;;-4.54;83.10
71107;BME280;58763;47.982;11.516;2023-02-28T06:38:48;94518.31;;;-4.45;82.94
71107;BME280;58763;47.982;11.516;2023-02-28T06:41:26;94527.38;;;-4.54;82.52
71107;BME280;58763;47.982;11.516;2023-02-28T06:43:52;94533.00;;;-4.57;83.27
71107;BME280;58763;47.982;11.516;2023-02-28T06:46:18;94534.03;;;-4.58;83.20
71107;BME280;58763;47.982;11.516;2023-02-28T06:48:44;94540.47;;;-4.46;83.19
71107;BME280;58763;47.982;11.516;2023-02-28T06:51:18;94535.19;;;-4.46;83.45
71107;BME280;58763;47.982;11.516;2023-02-28T06:53:46;94543.69;;;-4.30;83.57
71107;BME280;58763;47.982;11.516;2023-02-28T06:56:13;94542.38;;;-4.19;82.63
71107;BME280;58763;47.982;11.516;2023-02-28T06:58:40;94545.88;;;-4.33;82.95
71107;BME280;58763;47.982;11.516;2023-02-28T07:01:06;94553.22;;;-4.29;82.72
71107;BME280;58763;47.982;11.516;2023-02-28T07:03:32;94560.09;;;-4.34;82.94
71107;BME280;58763;47.982;11.516;2023-02-28T07:05:57;94559.81;;;-4.39;83.30
71107;BME280;58763;47.982;11.516;2023-02-28T07:08:24;94563.09;;;-4.37;83.27
71107;BME280;58763;47.982;11.516;2023-02-28T07:10:54;94567.69;;;-4.25;83.18
71107;BME280;58763;47.982;11.516;2023-02-28T07:13:20;94568.16;;;-4.21;82.77
71107;BME280;58763;47.982;11.516;2023-02-28T07:15:57;94567.66;;;-4.10;82.39
71107;BME280;58763;47.982;11.516;2023-02-28T07:18:23;94565.53;;;-4.00;82.22
71107;BME280;58763;47.982;11.516;2023-02-28T07:20:49;94563.25;;;-4.03;82.12
71107;BME280;58763;47.982;11.516;2023-02-28T07:23:15;94565.63;;;-4.08;82.28
71107;BME280;58763;47.982;11.516;2023-02-28T07:25:40;94570.69;;;-3.92;82.52
71107;BME280;58763;47.982;11.516;2023-02-28T07:28:06;94568.34;;;-3.80;82.23
71107;BME280;58763;47.982;11.516;2023-02-28T07:30:31;94558.81;;;-3.81;81.91
71107;BME280;58763;47.982;11.516;2023-02-28T07:32:58;94564.53;;;-3.78;81.69
71107;BME280;58763;47.982;11.516;2023-02-28T07:35:24;94560.25;;;-3.79;81.39
71107;BME280;58763;47.982;11.516;2023-02-28T07:37:50;94561.09;;;-3.78;81.90
71107;BME280;58763;47.982;11.516;2023-02-28T07:40:15;94560.25;;;-3.79;82.04
71107;BME280;58763;47.982;11.516;2023-02-28T07:42:43;94560.81;;;-3.83;81.62
71107;BME280;58763;47.982;11.516;2023-02-28T07:45:10;94557.63;;;-3.79;81.67
71107;BME280;58763;47.982;11.516;2023-02-28T07:47:38;94555.53;;;-3.83;81.74
71107;BME280;58763;47.982;11.516;2023-02-28T07:50:05;94558.03;;;-3.96;81.41
71107;BME280;58763;47.982;11.516;2023-02-28T07:52:31;94559.00;;;-3.83;81.72
71107;BME280;58763;47.982;11.516;2023-02-28T07:54:57;94561.13;;;-3.72;81.60
71107;BME280;58763;47.982;11.516;2023-02-28T07:57:23;94561.75;;;-3.70;81.15
71107;BME280;58763;47.982;11.516;2023-02-28T07:59:48;94569.53;;;-3.62;81.42
71107;BME280;58763;47.982;11.516;2023-02-28T08:02:15;94578.66;;;-3.43;81.01
71107;BME280;58763;47.982;11.516;2023-02-28T08:04:41;94573.94;;;-3.47;81.26
71107;BME280;58763;47.982;11.516;2023-02-28T08:07:07;94580.75;;;-3.60;81.22
71107;BME280;58763;47.982;11.516;2023-02-28T08:09:33;94581.13;;;-3.63;80.90
71107;BME280;58763;47.982;11.516;2023-02-28T08:11:59;94586.47;;;-3.56;81.34
71107;BME280;58763;47.982;11.516;2023-02-28T08:14:25;94579.53;;;-3.36;81.10
71107;BME280;58763;47.982;11.516;2023-02-28T08:16:51;94588.16;;;-3.27;80.76
71107;BME280;58763;47.982;11.516;2023-02-28T08:19:16;94583.81;;;-3.07;80.06
71107;BME280;58763;47.982;11.516;2023-02-28T08:21:42;94581.50;;;-3.17;79.54
71107;BME280;58763;47.982;11.516;2023-02-28T08:24:08;94579.91;;;-3.39;79.60
71107;BME280;58763;47.982;11.516;2023-02-28T08:26:33;94581.63;;;-3.31;79.57
71107;BME280;58763;47.982;11.516;2023-02-28T08:28:59;94585.34;;;-3.47;79.15
71107;BME280;58763;47.982;11.516;2023-02-28T08:31:25;94580.88;;;-3.46;79.41
71107;BME280;58763;47.982;11.516;2023-02-28T08:33:50;94590.56;;;-3.54;79.95
71107;BME280;58763;47.982;11.516;2023-02-28T08:36:18;94591.66;;;-3.48;80.17
71107;BME280;58763;47.982;11.516;2023-02-28T08:38:44;94591.06;;;-3.43;79.86
71107;BME280;58763;47.982;11.516;2023-02-28T08:41:12;94596.81;;;-3.33;79.48
71107;BME280;58763;47.982;11.516;2023-02-28T08:43:39;94594.44;;;-3.28;79.05
71107;BME280;58763;47.982;11.516;2023-02-28T08:46:06;94599.25;;;-3.38;79.44
71107;BME280;58763;47.982;11.516;2023-02-28T08:48:34;94598.38;;;-3.45;79.50
71107;BME280;58763;47.982;11.516;2023-02-28T08:51:05;94596.59;;;-3.38;79.82
71107;BME280;58763;47.982;11.516;2023-02-28T08:53:32;94597.69;;;-3.26;79.21
71107;BME280;58763;47.982;11.516;2023-02-28T08:56:03;94605.63;;;-3.26;79.69
71107;BME280;58763;47.982;11.516;2023-02-28T08:58:29;94608.84;;;-3.31;79.74
71107;BME280;58763;47.982;11.516;2023-02-28T09:00:55;94608.69;;;-3.29;79.36
71107;BME280;58763;47.982;11.516;2023-02-28T09:03:21;94610.34;;;-3.22;79.09
71107;BME280;58763;47.982;11.516;2023-02-28T09:05:58;94622.38;;;-3.19;79.40
71107;BME280;58763;47.982;11.516;2023-02-28T09:08:26;94620.22;;;-3.09;79.27
71107;BME280;58763;47.982;11.516;2023-02-28T09:10:54;94617.25;;;-3.00;78.97
71107;BME280;58763;47.982;11.516;2023-02-28T09:13:22;94618.81;;;-3.05;78.98
71107;BME280;58763;47.982;11.516;2023-02-28T09:15:48;94609.28;;;-3.06;78.66
71107;BME280;58763;47.982;11.516;2023-02-28T09:18:14;94614.28;;;-2.90;78.79
71107;BME280;58763;47.982;11.516;2023-02-28T09:20:41;94620.41;;;-2.83;78.00
71107;BME280;58763;47.982;11.516;2023-02-28T09:23:08;94614.94;;;-2.82;78.22
71107;BME280;58763;47.982;11.516;2023-02-28T09:25:34;94616.91;;;-2.90;78.84
71107;BME280;58763;47.982;11.516;2023-02-28T09:28:00;94622.16;;;-2.97;78.53
71107;BME280;58763;47.982;11.516;2023-02-28T09:30:26;94622.16;;;-2.97;79.08
71107;BME280;58763;47.982;11.516;2023-02-28T09:32:52;94620.97;;;-2.94;79.09
71107;BME280;58763;47.982;11.516;2023-02-28T09:35:20;94627.78;;;-3.06;79.33
71107;BME280;58763;47.982;11.516;2023-02-28T09:37:47;94632.06;;;-3.05;79.29
71107;BME280;58763;47.982;11.516;2023-02-28T09:40:14;94633.56;;;-3.17;80.11
71107;BME280;58763;47.982;11.516;2023-02-28T09:42:42;94631.66;;;-3.30;80.45
71107;BME280;58763;47.982;11.516;2023-02-28T09:47:54;94635.59;;;-3.19;79.73
71107;BME280;58763;47.982;11.516;2023-02-28T09:50:36;94637.06;;;-2.89;79.56
71107;BME280;58763;47.982;11.516;2023-02-28T09:53:13;94640.84;;;-2.70;79.32
71107;BME280;58763;47.982;11.516;2023-02-28T09:55:49;94639.88;;;-2.63;78.39
71107;BME280;58763;47.982;11.516;2023-02-28T09:58:23;94646.41;;;-2.93;78.68
71107;BME280;58763;47.982;11.516;2023-02-28T10:00:59;94639.13;;;-2.85;78.86
71107;BME280;58763;47.982;11.516;2023-02-28T10:03:32;94644.84;;;-2.81;79.02
71107;BME280;58763;47.982;11.516;2023-02-28T10:06:18;94649.31;;;-2.82;79.23
71107;BME280;58763;47.982;11.516;2023-02-28T10:09:06;94657.84;;;-2.86;78.55
71107;BME280;58763;47.982;11.516;2023-02-28T10:11:37;94665.53;;;-2.91;78.52
71107;BME280;58763;47.982;11.516;2023-02-28T10:14:15;94667.34;;;-2.92;78.58
71107;BME280;58763;47.982;11.516;2023-02-28T10:16:57;94672.47;;;-2.90;78.34
71107;BME280;58763;47.982;11.516;2023-02-28T10:19:31;94672.22;;;-2.95;79.18
71107;BME280;58763;47.982;11.516;2023-02-28T10:24:35;94674.78;;;-2.81;78.37
71107;BME280;58763;47.982;11.516;2023-02-28T10:27:23;94667.84;;;-2.54;77.76
71107;BME280;58763;47.982;11.516;2023-02-28T10:29:54;94680.06;;;-2.53;77.44
71107;BME280;58763;47.982;11.516;2023-02-28T10:32:24;94671.03;;;-2.31;77.51
71107;BME280;58763;47.982;11.516;2023-02-28T10:34:55;94674.38;;;-2.16;76.87
71107;BME280;58763;47.982;11.516;2023-02-28T10:37:22;94670.94;;;-2.10;76.04
71107;BME280;58763;47.982;11.516;2023-02-28T10:39:47;94680.69;;;-2.17;76.64
71107;BME280;58763;47.982;11.516;2023-02-28T10:42:27;94684.88;;;-1.94;76.61
71107;BME280;58763;47.982;11.516;2023-02-28T10:45:14;94684.91;;;-1.88;75.64
71107;BME280;58763;47.982;11.516;2023-02-28T10:47:56;94688.53;;;-1.95;76.12
71107;BME280;58763;47.982;11.516;2023-02-28T10:52:53;94688.38;;;-1.87;75.76
71107;BME280;58763;47.982;11.516;2023-02-28T10:55:22;94696.72;;;-1.90;76.46
71107;BME280;58763;47.982;11.516;2023-02-28T10:57:51;94691.69;;;-1.72;76.20
71107;BME280;58763;47.982;11.516;2023-02-28T11:00:23;94695.75;;;-1.83;75.35
71107;BME280;58763;47.982;11.516;2023-02-28T11:02:50;94694.69;;;-1.88;75.59
71107;BME280;58763;47.982;11.516;2023-02-28T11:08:19;94693.84;;;-1.95;76.77
71107;BME280;58763;47.982;11.516;2023-02-28T11:10:54;94699.13;;;-1.95;75.07
71107;BME280;58763;47.982;11.516;2023-02-28T11:13:33;94698.72;;;-2.05;75.53
71107;BME280;58763;47.982;11.516;2023-02-28T11:16:02;94695.91;;;-1.91;76.57
71107;BME280;58763;47.982;11.516;2023-02-28T11:18:50;94693.28;;;-1.84;76.67
71107;BME280;58763;47.982;11.516;2023-02-28T11:21:26;94699.63;;;-1.79;75.61
71107;BME280;58763;47.982;11.516;2023-02-28T11:24:01;94691.53;;;-1.64;75.53
71107;BME280;58763;47.982;11.516;2023-02-28T11:26:48;94686.63;;;-1.61;75.88
71107;BME280;58763;47.982;11.516;2023-02-28T11:29:26;94687.91;;;-1.50;75.55
71107;BME280;58763;47.982;11.516;2023-02-28T11:34:40;94692.72;;;-1.80;76.03
71107;BME280;58763;47.982;11.516;2023-02-28T11:37:15;94681.53;;;-1.69;75.51
71107;BME280;58763;47.982;11.516;2023-02-28T11:39:43;94683.81;;;-1.59;76.33
71107;BME280;58763;47.982;11.516;2023-02-28T11:45:21;94677.88;;;-1.61;74.89
71107;BME280;58763;47.982;11.516;2023-02-28T11:47:58;94674.78;;;-1.71;75.65
71107;BME280;58763;47.982;11.516;2023-02-28T11:50:48;94672.41;;;-1.47;75.14
71107;BME280;58763;47.982;11.516;2023-02-28T11:53:26;94677.72;;;-1.40;74.62
71107;BME280;58763;47.982;11.516;2023-02-28T11:56:05;94671.41;;;-1.39;74.38
71107;BME280;58763;47.982;11.516;2023-02-28T12:07:09;94674.66;;;-1.37;73.79
71107;BME280;58763;47.982;11.516;2023-02-28T12:10:21;94664.50;;;-1.27;73.61
71107;BME280;58763;47.982;11.516;2023-02-28T12:21:04;94661.88;;;-0.75;72.89
71107;BME280;58763;47.982;11.516;2023-02-28T12:23:48;94658.00;;;-0.52;71.65
71107;BME280;58763;47.982;11.516;2023-02-28T12:29:29;94639.34;;;-0.26;70.64
71107;BME280;58763;47.982;11.516;2023-02-28T12:34:36;94647.69;;;-0.10;69.84
71107;BME280;58763;47.982;11.516;2023-02-28T12:37:12;94649.06;;;0.06;69.85
71107;BME280;58763;47.982;11.516;2023-02-28T12:39:44;94650.03;;;0.18;69.85
71107;BME280;58763;47.982;11.516;2023-02-28T12:42:13;94645.78;;;0.11;69.54
71107;BME280;58763;47.982;11.516;2023-02-28T12:45:05;94645.53;;;0.25;69.51
71107;BME280;58763;47.982;11.516;2023-02-28T12:47:34;94651.31;;;0.09;69.94
71107;BME280;58763;47.982;11.516;2023-02-28T12:50:05;94640.38;;;0.24;69.37
71107;BME280;58763;47.982;11.516;2023-02-28T12:57:50;94644.06;;;0.29;68.14
71107;BME280;58763;47.982;11.516;2023-02-28T13:00:22;94648.16;;;0.32;68.88
71107;BME280;58763;47.982;11.516;2023-02-28T13:08:52;94634.50;;;0.59;68.98
71107;BME280;58763;47.982;11.516;2023-02-28T13:14:04;94643.94;;;0.87;67.19
71107;BME280;58763;47.982;11.516;2023-02-28T13:17:00;94644.72;;;0.62;67.55
71107;BME280;58763;47.982;11.516;2023-02-28T13:19:30;94638.25;;;0.45;67.85
71107;BME280;58763;47.982;11.516;2023-02-28T13:21:57;94645.28;;;0.71;67.51
71107;BME280;58763;47.982;11.516;2023-02-28T13:24:44;94648.34;;;0.68;67.66
71107;BME280;58763;47.982;11.516;2023-02-28T13:27:21;94643.78;;;0.82;67.89
71107;BME280;58763;47.982;11.516;2023-02-28T13:29:53;94646.81;;;0.85;67.25
71107;BME280;58763;47.982;11.516;2023-02-28T13:39:51;94641.72;;;1.39;65.72
71107;BME280;58763;47.982;11.516;2023-02-28T13:56:03;94638.34;;;1.69;65.08
71107;BME280;58763;47.982;11.516;2023-02-28T14:03:57;94643.34;;;1.83;64.04
71107;BME280;58763;47.982;11.516;2023-02-28T14:06:35;94638.38;;;1.87;63.68
71107;BME280;58763;47.982;11.516;2023-02-28T14:09:41;94652.00;;;1.79;64.35
71107;BME280;58763;47.982;11.516;2023-02-28T14:18:20;94642.31;;;1.84;63.54
71107;BME280;58763;47.982;11.516;2023-02-28T14:20:48;94636.75;;;1.86;63.28
71107;BME280;58763;47.982;11.516;2023-02-28T14:23:32;94628.84;;;1.97;63.61
71107;BME280;58763;47.982;11.516;2023-02-28T14:26:26;94631.66;;;2.02;62.82
71107;BME280;58763;47.982;11.516;2023-02-28T14:29:23;94626.59;;;2.13;63.40
71107;BME280;58763;47.982;11.516;2023-02-28T14:32:05;94635.00;;;1.98;63.42
71107;BME280;58763;47.982;11.516;2023-02-28T14:34:47;94626.84;;;1.93;62.95
71107;BME280;58763;47.982;11.516;2023-02-28T14:37:23;94625.41;;;1.72;63.17
71107;BME280;58763;47.982;11.516;2023-02-28T14:39:53;94622.06;;;1.59;64.31
71107;BME280;58763;47.982;11.516;2023-02-28T14:42:31;94624.94;;;1.57;64.50
71107;BME280;58763;47.982;11.516;2023-02-28T14:44:58;94624.16;;;1.75;64.64
71107;BME280;58763;47.982;11.516;2023-02-28T14:47:28;94632.81;;;1.70;63.76
71107;BME280;58763;47.982;11.516;2023-02-28T14:49:57;94626.00;;;1.74;64.66
71107;BME280;58763;47.982;11.516;2023-02-28T14:52:25;94626.44;;;1.89;64.58
71107;BME280;58763;47.982;11.516;2023-02-28T14:54:58;94625.94;;;1.99;63.99
71107;BME280;58763;47.982;11.516;2023-02-28T14:57:29;94627.41;;;2.13;63.65
71107;BME280;58763;47.982;11.516;2023-02-28T15:00:07;94631.19;;;2.05;63.88
71107;BME280;58763;47.982;11.516;2023-02-28T15:02:38;94629.81;;;2.03;63.21
71107;BME280;58763;47.982;11.516;2023-02-28T15:05:23;94633.84;;;2.05;63.64
71107;BME280;58763;47.982;11.516;2023-02-28T15:08:01;94636.47;;;2.12;63.57
71107;BME280;58763;47.982;11.516;2023-02-28T15:10:27;94630.81;;;2.20;63.37
71107;BME280;58763;47.982;11.516;2023-02-28T15:12:59;94635.28;;;2.26;63.42